sensor_id;sensor_type;location;lat;lon;timestamp;P1;durP1;ratioP1;P2;durP2;ratioP2
33579;SDS011;19909;43.644;-79.438;2023-05-31T00:00:12;1.45;;;1.35;;
33579;SDS011;19909;43.644;-79.438;2023-05-31T00:02:38;2.67;;;1.73;;
33579;SDS011;19909;43.644;-79.438;2023-05-31T00:05:05;2.17;;;1.70;;
33579;SDS011;19909;43.644;-79.438;2023-05-31T00:09:59;2.00;;;1.70;;
33579;SDS011;19909;43.644;-79.438;2023-05-31T00:12:25;4.60;;;1.75;;
33579;SDS011;19909;43.644;-79.438;2023-05-31T00:14:51;3.78;;;1.67;;
33579;SDS011;19909;43.644;-79.438;2023-05-31T00:17:18;2.55;;;1.45;;
33579;SDS011;19909;43.644;-79.438;2023-05-31T00:22:09;1.83;;;1.42;;
33579;SDS011;19909;43.644;-79.438;2023-05-31T00:24:36;2.10;;;1.58;;
33579;SDS011;19909;43.644;-79.438;2023-05-31T00:27:02;3.17;;;2.00;;
33579;SDS011;19909;43.644;-79.438;2023-05-31T00:29:29;3.13;;;1.50;;
33579;SDS011;19909;43.644;-79.438;2023-05-31T00:31:55;7.80;;;2.15;;
33579;SDS011;19909;43.644;-79.438;2023-05-31T00:34:22;4.97;;;1.67;;
33579;SDS011;19909;43.644;-79.438;2023-05-31T00:36:48;3.80;;;1.85;;
33579;SDS011;19909;43.644;-79.438;2023-05-31T00:39:14;4.30;;;1.40;;
33579;SDS011;19909;43.644;-79.438;2023-05-31T00:41:40;1.67;;;1.20;;
33579;SDS011;19909;43.644;-79.438;2023-05-31T00:44:06;3.13;;;1.25;;
33579;SDS011;19909;43.644;-79.438;2023-05-31T00:46:34;2.20;;;1.75;;
33579;SDS011;19909;43.644;-79.438;2023-05-31T00:49:01;4.35;;;1.50;;
33579;SDS011;19909;43.644;-79.438;2023-05-31T00:51:29;2.05;;;1.23;;
33579;SDS011;19909;43.644;-79.438;2023-05-31T00:53:57;1.75;;;1.40;;
33579;SDS011;19909;43.644;-79.438;2023-05-31T00:56:25;2.03;;;1.15;;
33579;SDS011;19909;43.644;-79.438;2023-05-31T00:58:51;15.23;;;2.20;;
33579;SDS011;19909;43.644;-79.438;2023-05-31T01:01:20;4.18;;;1.58;;
33579;SDS011;19909;43.644;-79.438;2023-05-31T01:06:22;2.47;;;1.10;;
33579;SDS011;19909;43.644;-79.438;2023-05-31T01:08:51;2.95;;;1.33;;
33579;SDS011;19909;43.644;-79.438;2023-05-31T01:16:45;4.22;;;1.05;;
33579;SDS011;19909;43.644;-79.438;2023-05-31T01:22:11;3.17;;;1.10;;
33579;SDS011;19909;43.644;-79.438;2023-05-31T01:29:51;2.03;;;1.30;;
33579;SDS011;19909;43.644;-79.438;2023-05-31T01:32:20;3.17;;;1.23;;
33579;SDS011;19909;43.644;-79.438;2023-05-31T01:34:49;1.60;;;1.10;;
33579;SDS011;19909;43.644;-79.438;2023-05-31T01:39:51;2.88;;;1.08;;
33579;SDS011;19909;43.644;-79.438;2023-05-31T01:42:17;1.30;;;1.15;;
33579;SDS011;19909;43.644;-79.438;2023-05-31T01:44:46;1.42;;;1.10;;
33579;SDS011;19909;43.644;-79.438;2023-05-31T01:47:13;1.63;;;1.10;;
33579;SDS011;19909;43.644;-79.438;2023-05-31T01:49:40;2.85;;;1.45;;
33579;SDS011;19909;43.644;-79.438;2023-05-31T01:52:07;10.93;;;2.00;;
33579;SDS011;19909;43.644;-79.438;2023-05-31T01:59:47;5.20;;;1.50;;
33579;SDS011;19909;43.644;-79.438;2023-05-31T02:02:13;4.15;;;1.67;;
33579;SDS011;19909;43.644;-79.438;2023-05-31T02:04:40;4.75;;;2.03;;
33579;SDS011;19909;43.644;-79.438;2023-05-31T02:07:06;4.00;;;1.60;;
33579;SDS011;19909;43.644;-79.438;2023-05-31T02:09:34;3.22;;;1.55;;
33579;SDS011;19909;43.644;-79.438;2023-05-31T02:12:00;4.30;;;1.73;;
33579;SDS011;19909;43.644;-79.438;2023-05-31T02:14:28;5.50;;;2.08;;
33579;SDS011;19909;43.644;-79.438;2023-05-31T02:16:54;2.85;;;1.48;;
33579;SDS011;19909;43.644;-79.438;2023-05-31T02:19:20;3.20;;;1.90;;
33579;SDS011;19909;43.644;-79.438;2023-05-31T02:21:51;4.88;;;2.10;;
33579;SDS011;19909;43.644;-79.438;2023-05-31T02:24:17;2.63;;;1.95;;
33579;SDS011;19909;43.644;-79.438;2023-05-31T02:26:43;2.22;;;1.90;;
33579;SDS011;19909;43.644;-79.438;2023-05-31T02:29:09;4.35;;;1.50;;
33579;SDS011;19909;43.644;-79.438;2023-05-31T02:31:36;2.05;;;1.73;;
33579;SDS011;19909;43.644;-79.438;2023-05-31T02:34:02;2.30;;;1.83;;
33579;SDS011;19909;43.644;-79.438;2023-05-31T02:36:28;3.33;;;2.13;;
33579;SDS011;19909;43.644;-79.438;2023-05-31T02:38:55;2.70;;;2.00;;
33579;SDS011;19909;43.644;-79.438;2023-05-31T02:41:21;2.67;;;1.70;;
33579;SDS011;19909;43.644;-79.438;2023-05-31T02:43:47;2.80;;;1.60;;
33579;SDS011;19909;43.644;-79.438;2023-05-31T02:46:13;2.17;;;1.40;;
33579;SDS011;19909;43.644;-79.438;2023-05-31T02:48:39;2.50;;;1.48;;
33579;SDS011;19909;43.644;-79.438;2023-05-31T02:51:05;1.80;;;1.40;;
33579;SDS011;19909;43.644;-79.438;2023-05-31T02:53:31;3.00;;;1.90;;
33579;SDS011;19909;43.644;-79.438;2023-05-31T02:55:58;2.15;;;1.60;;
33579;SDS011;19909;43.644;-79.438;2023-05-31T02:58:24;2.67;;;2.05;;
33579;SDS011;19909;43.644;-79.438;2023-05-31T03:00:50;2.67;;;1.90;;
33579;SDS011;19909;43.644;-79.438;2023-05-31T03:03:16;2.10;;;1.90;;
33579;SDS011;19909;43.644;-79.438;2023-05-31T03:05:43;2.28;;;2.05;;
33579;SDS011;19909;43.644;-79.438;2023-05-31T03:08:10;2.90;;;2.15;;
33579;SDS011;19909;43.644;-79.438;2023-05-31T03:10:36;2.13;;;1.92;;
33579;SDS011;19909;43.644;-79.438;2023-05-31T03:13:02;3.85;;;2.58;;
33579;SDS011;19909;43.644;-79.438;2023-05-31T03:15:28;2.80;;;1.80;;
33579;SDS011;19909;43.644;-79.438;2023-05-31T03:17:55;2.75;;;2.55;;
33579;SDS011;19909;43.644;-79.438;2023-05-31T03:20:21;2.65;;;2.25;;
33579;SDS011;19909;43.644;-79.438;2023-05-31T03:22:47;2.60;;;2.40;;
33579;SDS011;19909;43.644;-79.438;2023-05-31T03:25:13;3.08;;;2.40;;
33579;SDS011;19909;43.644;-79.438;2023-05-31T03:27:40;3.15;;;2.40;;
33579;SDS011;19909;43.644;-79.438;2023-05-31T03:30:06;2.20;;;2.00;;
33579;SDS011;19909;43.644;-79.438;2023-05-31T03:32:33;2.45;;;1.98;;
33579;SDS011;19909;43.644;-79.438;2023-05-31T03:34:59;5.05;;;2.30;;
33579;SDS011;19909;43.644;-79.438;2023-05-31T03:37:25;3.08;;;2.45;;
33579;SDS011;19909;43.644;-79.438;2023-05-31T03:39:51;2.30;;;1.90;;
33579;SDS011;19909;43.644;-79.438;2023-05-31T03:42:17;2.88;;;2.40;;
33579;SDS011;19909;43.644;-79.438;2023-05-31T03:44:43;2.30;;;2.10;;
33579;SDS011;19909;43.644;-79.438;2023-05-31T03:47:10;2.33;;;2.13;;
33579;SDS011;19909;43.644;-79.438;2023-05-31T03:49:36;2.05;;;1.85;;
33579;SDS011;19909;43.644;-79.438;2023-05-31T03:52:02;2.55;;;2.10;;
33579;SDS011;19909;43.644;-79.438;2023-05-31T03:54:29;1.70;;;1.52;;
33579;SDS011;19909;43.644;-79.438;2023-05-31T03:56:55;1.75;;;1.65;;
33579;SDS011;19909;43.644;-79.438;2023-05-31T03:59:22;2.30;;;2.10;;
33579;SDS011;19909;43.644;-79.438;2023-05-31T04:01:48;2.78;;;2.20;;
33579;SDS011;19909;43.644;-79.438;2023-05-31T04:04:14;2.20;;;2.00;;
33579;SDS011;19909;43.644;-79.438;2023-05-31T04:06:40;3.08;;;2.28;;
33579;SDS011;19909;43.644;-79.438;2023-05-31T04:09:06;2.38;;;1.98;;
33579;SDS011;19909;43.644;-79.438;2023-05-31T04:11:32;2.13;;;1.95;;
33579;SDS011;19909;43.644;-79.438;2023-05-31T04:13:58;3.72;;;2.22;;
33579;SDS011;19909;43.644;-79.438;2023-05-31T04:16:24;2.05;;;1.85;;
33579;SDS011;19909;43.644;-79.438;2023-05-31T04:18:51;2.17;;;1.98;;
33579;SDS011;19909;43.644;-79.438;2023-05-31T04:21:17;1.88;;;1.65;;
33579;SDS011;19909;43.644;-79.438;2023-05-31T04:23:43;2.00;;;1.85;;
33579;SDS011;19909;43.644;-79.438;2023-05-31T04:26:09;1.52;;;1.42;;
33579;SDS011;19909;43.644;-79.438;2023-05-31T04:28:41;3.35;;;1.70;;
33579;SDS011;19909;43.644;-79.438;2023-05-31T04:31:08;2.50;;;2.30;;
33579;SDS011;19909;43.644;-79.438;2023-05-31T04:33:35;2.00;;;1.80;;
33579;SDS011;19909;43.644;-79.438;2023-05-31T04:36:02;2.35;;;1.88;;
33579;SDS011;19909;43.644;-79.438;2023-05-31T04:38:30;2.10;;;1.90;;
33579;SDS011;19909;43.644;-79.438;2023-05-31T04:40:57;2.13;;;1.90;;
33579;SDS011;19909;43.644;-79.438;2023-05-31T04:43:25;1.98;;;1.85;;
33579;SDS011;19909;43.644;-79.438;2023-05-31T04:45:51;2.28;;;2.08;;
33579;SDS011;19909;43.644;-79.438;2023-05-31T04:48:21;2.30;;;2.10;;
33579;SDS011;19909;43.644;-79.438;2023-05-31T04:50:47;2.25;;;2.00;;
33579;SDS011;19909;43.644;-79.438;2023-05-31T04:53:14;2.42;;;1.88;;
33579;SDS011;19909;43.644;-79.438;2023-05-31T04:55:40;2.30;;;2.13;;
33579;SDS011;19909;43.644;-79.438;2023-05-31T04:58:06;3.25;;;2.17;;
33579;SDS011;19909;43.644;-79.438;2023-05-31T05:00:35;2.40;;;2.13;;
33579;SDS011;19909;43.644;-79.438;2023-05-31T05:03:02;3.22;;;1.83;;
33579;SDS011;19909;43.644;-79.438;2023-05-31T05:05:28;2.28;;;2.08;;
33579;SDS011;19909;43.644;-79.438;2023-05-31T05:07:54;1.88;;;1.73;;
33579;SDS011;19909;43.644;-79.438;2023-05-31T05:10:21;2.63;;;2.40;;
33579;SDS011;19909;43.644;-79.438;2023-05-31T05:12:47;2.22;;;2.03;;
33579;SDS011;19909;43.644;-79.438;2023-05-31T05:15:13;2.15;;;1.95;;
33579;SDS011;19909;43.644;-79.438;2023-05-31T05:17:39;2.67;;;2.47;;
33579;SDS011;19909;43.644;-79.438;2023-05-31T05:20:07;2.40;;;2.20;;
33579;SDS011;19909;43.644;-79.438;2023-05-31T05:22:35;1.90;;;1.70;;
33579;SDS011;19909;43.644;-79.438;2023-05-31T05:25:01;2.38;;;2.17;;
33579;SDS011;19909;43.644;-79.438;2023-05-31T05:27:27;2.50;;;2.30;;
33579;SDS011;19909;43.644;-79.438;2023-05-31T05:29:53;2.30;;;2.10;;
33579;SDS011;19909;43.644;-79.438;2023-05-31T05:32:20;2.90;;;2.70;;
33579;SDS011;19909;43.644;-79.438;2023-05-31T05:34:46;2.22;;;2.03;;
33579;SDS011;19909;43.644;-79.438;2023-05-31T05:37:12;2.90;;;2.20;;
33579;SDS011;19909;43.644;-79.438;2023-05-31T05:39:38;2.50;;;2.30;;
33579;SDS011;19909;43.644;-79.438;2023-05-31T05:42:04;2.28;;;2.05;;
33579;SDS011;19909;43.644;-79.438;2023-05-31T05:44:31;2.30;;;2.10;;
33579;SDS011;19909;43.644;-79.438;2023-05-31T05:46:57;2.30;;;2.10;;
33579;SDS011;19909;43.644;-79.438;2023-05-31T05:51:52;2.03;;;1.90;;
33579;SDS011;19909;43.644;-79.438;2023-05-31T05:54:18;2.60;;;2.40;;
33579;SDS011;19909;43.644;-79.438;2023-05-31T05:56:45;2.63;;;2.40;;
33579;SDS011;19909;43.644;-79.438;2023-05-31T05:59:11;2.58;;;2.38;;
33579;SDS011;19909;43.644;-79.438;2023-05-31T06:01:37;2.60;;;2.40;;
33579;SDS011;19909;43.644;-79.438;2023-05-31T06:04:03;2.30;;;2.10;;
33579;SDS011;19909;43.644;-79.438;2023-05-31T06:06:29;2.42;;;2.22;;
33579;SDS011;19909;43.644;-79.438;2023-05-31T06:08:57;2.55;;;1.98;;
33579;SDS011;19909;43.644;-79.438;2023-05-31T06:11:23;2.40;;;2.03;;
33579;SDS011;19909;43.644;-79.438;2023-05-31T06:13:50;3.05;;;2.10;;
33579;SDS011;19909;43.644;-79.438;2023-05-31T06:16:21;2.20;;;2.00;;
33579;SDS011;19909;43.644;-79.438;2023-05-31T06:18:48;2.20;;;2.00;;
33579;SDS011;19909;43.644;-79.438;2023-05-31T06:21:15;2.88;;;2.38;;
33579;SDS011;19909;43.644;-79.438;2023-05-31T06:23:42;2.45;;;2.05;;
33579;SDS011;19909;43.644;-79.438;2023-05-31T06:26:08;4.07;;;2.88;;
33579;SDS011;19909;43.644;-79.438;2023-05-31T06:28:34;2.30;;;2.00;;
33579;SDS011;19909;43.644;-79.438;2023-05-31T06:31:02;2.35;;;2.15;;
33579;SDS011;19909;43.644;-79.438;2023-05-31T06:33:28;2.40;;;1.90;;
33579;SDS011;19909;43.644;-79.438;2023-05-31T06:35:54;2.70;;;2.22;;
33579;SDS011;19909;43.644;-79.438;2023-05-31T06:38:20;2.17;;;1.98;;
33579;SDS011;19909;43.644;-79.438;2023-05-31T06:40:46;2.47;;;2.28;;
33579;SDS011;19909;43.644;-79.438;2023-05-31T06:43:13;2.92;;;2.50;;
33579;SDS011;19909;43.644;-79.438;2023-05-31T06:45:40;2.60;;;2.40;;
33579;SDS011;19909;43.644;-79.438;2023-05-31T06:48:07;2.60;;;2.40;;
33579;SDS011;19909;43.644;-79.438;2023-05-31T06:50:34;2.60;;;2.33;;
33579;SDS011;19909;43.644;-79.438;2023-05-31T06:53:00;2.72;;;2.22;;
33579;SDS011;19909;43.644;-79.438;2023-05-31T06:55:26;2.10;;;1.90;;
33579;SDS011;19909;43.644;-79.438;2023-05-31T06:57:52;2.72;;;2.47;;
33579;SDS011;19909;43.644;-79.438;2023-05-31T07:00:18;2.22;;;2.03;;
33579;SDS011;19909;43.644;-79.438;2023-05-31T07:02:45;2.65;;;2.10;;
33579;SDS011;19909;43.644;-79.438;2023-05-31T07:05:11;2.30;;;2.10;;
33579;SDS011;19909;43.644;-79.438;2023-05-31T07:07:37;2.30;;;2.10;;
33579;SDS011;19909;43.644;-79.438;2023-05-31T07:10:03;4.28;;;1.95;;
33579;SDS011;19909;43.644;-79.438;2023-05-31T07:12:30;2.92;;;2.00;;
33579;SDS011;19909;43.644;-79.438;2023-05-31T07:14:56;2.92;;;1.90;;
33579;SDS011;19909;43.644;-79.438;2023-05-31T07:17:22;2.72;;;2.45;;
33579;SDS011;19909;43.644;-79.438;2023-05-31T07:19:48;1.85;;;1.75;;
33579;SDS011;19909;43.644;-79.438;2023-05-31T07:22:15;2.90;;;2.38;;
33579;SDS011;19909;43.644;-79.438;2023-05-31T07:24:42;2.30;;;2.10;;
33579;SDS011;19909;43.644;-79.438;2023-05-31T07:27:09;2.22;;;2.03;;
33579;SDS011;19909;43.644;-79.438;2023-05-31T07:29:36;2.30;;;2.10;;
33579;SDS011;19909;43.644;-79.438;2023-05-31T07:32:02;2.30;;;2.10;;
33579;SDS011;19909;43.644;-79.438;2023-05-31T07:34:28;2.40;;;2.20;;
33579;SDS011;19909;43.644;-79.438;2023-05-31T07:36:54;2.58;;;2.10;;
33579;SDS011;19909;43.644;-79.438;2023-05-31T07:39:21;1.75;;;1.65;;
33579;SDS011;19909;43.644;-79.438;2023-05-31T07:41:47;2.38;;;1.77;;
33579;SDS011;19909;43.644;-79.438;2023-05-31T07:44:13;2.45;;;2.10;;
33579;SDS011;19909;43.644;-79.438;2023-05-31T07:46:42;1.88;;;1.77;;
33579;SDS011;19909;43.644;-79.438;2023-05-31T07:49:08;2.00;;;1.88;;
33579;SDS011;19909;43.644;-79.438;2023-05-31T07:51:34;1.85;;;1.75;;
33579;SDS011;19909;43.644;-79.438;2023-05-31T07:54:01;2.22;;;1.73;;
33579;SDS011;19909;43.644;-79.438;2023-05-31T07:56:28;2.05;;;1.85;;
33579;SDS011;19909;43.644;-79.438;2023-05-31T07:58:54;2.30;;;2.10;;
33579;SDS011;19909;43.644;-79.438;2023-05-31T08:01:20;2.60;;;2.10;;
33579;SDS011;19909;43.644;-79.438;2023-05-31T08:03:47;2.20;;;2.00;;
33579;SDS011;19909;43.644;-79.438;2023-05-31T08:06:16;2.40;;;2.20;;
33579;SDS011;19909;43.644;-79.438;2023-05-31T08:08:42;1.85;;;1.75;;
33579;SDS011;19909;43.644;-79.438;2023-05-31T08:11:09;2.05;;;1.85;;
33579;SDS011;19909;43.644;-79.438;2023-05-31T08:13:35;2.47;;;2.28;;
33579;SDS011;19909;43.644;-79.438;2023-05-31T08:16:02;2.53;;;1.85;;
33579;SDS011;19909;43.644;-79.438;2023-05-31T08:18:28;1.98;;;1.88;;
33579;SDS011;19909;43.644;-79.438;2023-05-31T08:20:54;1.67;;;1.58;;
33579;SDS011;19909;43.644;-79.438;2023-05-31T08:23:20;2.30;;;2.10;;
33579;SDS011;19909;43.644;-79.438;2023-05-31T08:25:47;2.15;;;1.95;;
33579;SDS011;19909;43.644;-79.438;2023-05-31T08:28:13;2.50;;;2.30;;
33579;SDS011;19909;43.644;-79.438;2023-05-31T08:30:40;2.50;;;2.30;;
33579;SDS011;19909;43.644;-79.438;2023-05-31T08:33:06;2.85;;;2.33;;
33579;SDS011;19909;43.644;-79.438;2023-05-31T08:35:32;2.70;;;2.00;;
33579;SDS011;19909;43.644;-79.438;2023-05-31T08:37:58;2.40;;;2.20;;
33579;SDS011;19909;43.644;-79.438;2023-05-31T08:40:24;3.20;;;2.05;;
33579;SDS011;19909;43.644;-79.438;2023-05-31T08:42:52;2.35;;;2.13;;
33579;SDS011;19909;43.644;-79.438;2023-05-31T08:45:25;2.25;;;2.05;;
33579;SDS011;19909;43.644;-79.438;2023-05-31T08:50:36;2.23;;;2.03;;
33579;SDS011;19909;43.644;-79.438;2023-05-31T08:53:03;2.45;;;2.25;;
33579;SDS011;19909;43.644;-79.438;2023-05-31T08:55:33;2.80;;;2.47;;
33579;SDS011;19909;43.644;-79.438;2023-05-31T08:58:00;2.60;;;2.20;;
33579;SDS011;19909;43.644;-79.438;2023-05-31T09:00:28;2.42;;;2.22;;
33579;SDS011;19909;43.644;-79.438;2023-05-31T09:02:55;4.05;;;1.85;;
33579;SDS011;19909;43.644;-79.438;2023-05-31T09:05:21;2.85;;;2.55;;
33579;SDS011;19909;43.644;-79.438;2023-05-31T09:07:47;2.88;;;2.50;;
33579;SDS011;19909;43.644;-79.438;2023-05-31T09:10:15;2.28;;;2.08;;
33579;SDS011;19909;43.644;-79.438;2023-05-31T09:12:42;2.33;;;2.10;;
33579;SDS011;19909;43.644;-79.438;2023-05-31T09:15:09;2.38;;;2.10;;
33579;SDS011;19909;43.644;-79.438;2023-05-31T09:17:44;2.03;;;1.90;;
33579;SDS011;19909;43.644;-79.438;2023-05-31T09:20:11;4.30;;;2.42;;
33579;SDS011;19909;43.644;-79.438;2023-05-31T09:22:37;2.40;;;2.20;;
33579;SDS011;19909;43.644;-79.438;2023-05-31T09:25:04;2.45;;;2.25;;
33579;SDS011;19909;43.644;-79.438;2023-05-31T09:27:35;2.85;;;2.03;;
33579;SDS011;19909;43.644;-79.438;2023-05-31T09:30:12;2.40;;;2.20;;
33579;SDS011;19909;43.644;-79.438;2023-05-31T09:32:40;3.38;;;2.22;;
33579;SDS011;19909;43.644;-79.438;2023-05-31T09:35:13;2.58;;;2.38;;
33579;SDS011;19909;43.644;-79.438;2023-05-31T09:40:22;2.25;;;2.03;;
33579;SDS011;19909;43.644;-79.438;2023-05-31T09:42:50;2.70;;;2.50;;
33579;SDS011;19909;43.644;-79.438;2023-05-31T09:45:20;3.00;;;2.30;;
33579;SDS011;19909;43.644;-79.438;2023-05-31T09:47:47;2.83;;;2.30;;
33579;SDS011;19909;43.644;-79.438;2023-05-31T09:50:15;2.88;;;2.58;;
33579;SDS011;19909;43.644;-79.438;2023-05-31T09:52:43;2.95;;;2.20;;
33579;SDS011;19909;43.644;-79.438;2023-05-31T09:55:11;2.60;;;2.40;;
33579;SDS011;19909;43.644;-79.438;2023-05-31T09:57:38;2.63;;;2.33;;
33579;SDS011;19909;43.644;-79.438;2023-05-31T10:02:48;2.92;;;2.20;;
33579;SDS011;19909;43.644;-79.438;2023-05-31T10:07:42;2.85;;;2.50;;
33579;SDS011;19909;43.644;-79.438;2023-05-31T10:10:10;2.95;;;2.30;;
33579;SDS011;19909;43.644;-79.438;2023-05-31T10:12:39;2.45;;;2.25;;
33579;SDS011;19909;43.644;-79.438;2023-05-31T10:15:11;2.30;;;2.10;;
33579;SDS011;19909;43.644;-79.438;2023-05-31T10:17:45;2.45;;;2.25;;
33579;SDS011;19909;43.644;-79.438;2023-05-31T10:20:20;2.95;;;2.65;;
33579;SDS011;19909;43.644;-79.438;2023-05-31T10:22:49;2.50;;;2.30;;
33579;SDS011;19909;43.644;-79.438;2023-05-31T10:25:24;3.55;;;2.53;;
33579;SDS011;19909;43.644;-79.438;2023-05-31T10:28:07;2.53;;;2.33;;
33579;SDS011;19909;43.644;-79.438;2023-05-31T10:30:38;2.40;;;2.20;;
33579;SDS011;19909;43.644;-79.438;2023-05-31T10:33:07;3.13;;;2.45;;
33579;SDS011;19909;43.644;-79.438;2023-05-31T10:35:36;2.72;;;2.22;;
33579;SDS011;19909;43.644;-79.438;2023-05-31T10:38:02;2.55;;;2.35;;
33579;SDS011;19909;43.644;-79.438;2023-05-31T10:43:28;2.80;;;2.60;;
33579;SDS011;19909;43.644;-79.438;2023-05-31T10:46:14;2.90;;;2.45;;
33579;SDS011;19909;43.644;-79.438;2023-05-31T10:48:51;2.72;;;2.35;;
33579;SDS011;19909;43.644;-79.438;2023-05-31T10:51:18;2.72;;;2.40;;
33579;SDS011;19909;43.644;-79.438;2023-05-31T10:53:45;2.38;;;2.17;;
33579;SDS011;19909;43.644;-79.438;2023-05-31T10:56:12;2.75;;;2.42;;
33579;SDS011;19909;43.644;-79.438;2023-05-31T10:58:40;2.70;;;2.50;;
33579;SDS011;19909;43.644;-79.438;2023-05-31T11:01:12;4.07;;;2.47;;
33579;SDS011;19909;43.644;-79.438;2023-05-31T11:03:46;4.05;;;2.50;;
33579;SDS011;19909;43.644;-79.438;2023-05-31T11:06:14;2.83;;;2.42;;
33579;SDS011;19909;43.644;-79.438;2023-05-31T11:08:58;3.40;;;2.78;;
33579;SDS011;19909;43.644;-79.438;2023-05-31T11:14:02;2.83;;;2.25;;
33579;SDS011;19909;43.644;-79.438;2023-05-31T11:16:31;2.45;;;2.25;;
33579;SDS011;19909;43.644;-79.438;2023-05-31T11:19:16;3.75;;;2.53;;
33579;SDS011;19909;43.644;-79.438;2023-05-31T11:21:55;2.72;;;2.42;;
33579;SDS011;19909;43.644;-79.438;2023-05-31T11:27:18;4.30;;;2.60;;
33579;SDS011;19909;43.644;-79.438;2023-05-31T11:32:18;3.28;;;2.63;;
33579;SDS011;19909;43.644;-79.438;2023-05-31T11:34:54;2.53;;;2.15;;
33579;SDS011;19909;43.644;-79.438;2023-05-31T11:37:29;2.53;;;2.25;;
33579;SDS011;19909;43.644;-79.438;2023-05-31T11:39:59;2.97;;;2.20;;
33579;SDS011;19909;43.644;-79.438;2023-05-31T11:42:30;3.03;;;2.10;;
33579;SDS011;19909;43.644;-79.438;2023-05-31T11:44:57;2.60;;;2.40;;
33579;SDS011;19909;43.644;-79.438;2023-05-31T11:47:25;2.40;;;2.20;;
33579;SDS011;19909;43.644;-79.438;2023-05-31T11:49:53;2.83;;;2.20;;
33579;SDS011;19909;43.644;-79.438;2023-05-31T11:52:22;2.63;;;2.20;;
33579;SDS011;19909;43.644;-79.438;2023-05-31T11:54:49;3.40;;;2.50;;
33579;SDS011;19909;43.644;-79.438;2023-05-31T11:57:15;2.90;;;2.50;;
33579;SDS011;19909;43.644;-79.438;2023-05-31T11:59:42;3.50;;;2.15;;
33579;SDS011;19909;43.644;-79.438;2023-05-31T12:02:09;2.35;;;2.13;;
33579;SDS011;19909;43.644;-79.438;2023-05-31T12:04:36;2.40;;;2.20;;
33579;SDS011;19909;43.644;-79.438;2023-05-31T12:09:32;2.65;;;2.45;;
33579;SDS011;19909;43.644;-79.438;2023-05-31T12:12:00;2.40;;;2.10;;
33579;SDS011;19909;43.644;-79.438;2023-05-31T12:14:35;2.83;;;2.42;;
33579;SDS011;19909;43.644;-79.438;2023-05-31T12:17:02;2.20;;;2.00;;
33579;SDS011;19909;43.644;-79.438;2023-05-31T12:19:30;2.42;;;2.22;;
33579;SDS011;19909;43.644;-79.438;2023-05-31T12:21:56;2.83;;;2.00;;
33579;SDS011;19909;43.644;-79.438;2023-05-31T12:24:23;2.47;;;2.25;;
33579;SDS011;19909;43.644;-79.438;2023-05-31T12:26:49;3.00;;;2.25;;
33579;SDS011;19909;43.644;-79.438;2023-05-31T12:29:16;2.17;;;1.90;;
33579;SDS011;19909;43.644;-79.438;2023-05-31T12:31:43;3.45;;;1.92;;
33579;SDS011;19909;43.644;-79.438;2023-05-31T12:34:16;3.25;;;2.10;;
33579;SDS011;19909;43.644;-79.438;2023-05-31T12:36:49;2.22;;;2.05;;
33579;SDS011;19909;43.644;-79.438;2023-05-31T12:41:49;2.30;;;1.98;;
33579;SDS011;19909;43.644;-79.438;2023-05-31T12:44:16;1.90;;;1.80;;
33579;SDS011;19909;43.644;-79.438;2023-05-31T12:46:47;2.60;;;2.00;;
33579;SDS011;19909;43.644;-79.438;2023-05-31T12:49:22;2.28;;;1.83;;
33579;SDS011;19909;43.644;-79.438;2023-05-31T12:52:09;2.38;;;1.95;;
33579;SDS011;19909;43.644;-79.438;2023-05-31T12:54:36;3.75;;;2.10;;
33579;SDS011;19909;43.644;-79.438;2023-05-31T12:57:04;2.13;;;1.80;;
33579;SDS011;19909;43.644;-79.438;2023-05-31T12:59:34;2.83;;;2.00;;
33579;SDS011;19909;43.644;-79.438;2023-05-31T13:02:02;1.77;;;1.67;;
33579;SDS011;19909;43.644;-79.438;2023-05-31T13:04:30;2.65;;;2.03;;
33579;SDS011;19909;43.644;-79.438;2023-05-31T13:06:57;2.55;;;1.65;;
33579;SDS011;19909;43.644;-79.438;2023-05-31T13:09:23;2.00;;;1.80;;
33579;SDS011;19909;43.644;-79.438;2023-05-31T13:14:17;3.10;;;1.75;;
33579;SDS011;19909;43.644;-79.438;2023-05-31T13:16:45;2.15;;;1.92;;
33579;SDS011;19909;43.644;-79.438;2023-05-31T13:19:12;2.20;;;1.80;;
33579;SDS011;19909;43.644;-79.438;2023-05-31T13:21:38;1.83;;;1.50;;
33579;SDS011;19909;43.644;-79.438;2023-05-31T13:24:05;3.65;;;1.67;;
33579;SDS011;19909;43.644;-79.438;2023-05-31T13:26:33;3.67;;;1.98;;
33579;SDS011;19909;43.644;-79.438;2023-05-31T13:29:01;3.15;;;1.88;;
33579;SDS011;19909;43.644;-79.438;2023-05-31T13:31:29;3.70;;;2.15;;
33579;SDS011;19909;43.644;-79.438;2023-05-31T13:33:56;2.05;;;1.90;;
33579;SDS011;19909;43.644;-79.438;2023-05-31T13:36:22;2.70;;;2.00;;
33579;SDS011;19909;43.644;-79.438;2023-05-31T13:38:52;2.15;;;1.83;;
33579;SDS011;19909;43.644;-79.438;2023-05-31T13:41:18;3.33;;;1.98;;
33579;SDS011;19909;43.644;-79.438;2023-05-31T13:43:48;2.95;;;1.70;;
33579;SDS011;19909;43.644;-79.438;2023-05-31T13:46:14;3.58;;;1.70;;
33579;SDS011;19909;43.644;-79.438;2023-05-31T13:48:42;2.72;;;1.70;;
33579;SDS011;19909;43.644;-79.438;2023-05-31T13:51:09;2.17;;;1.98;;
33579;SDS011;19909;43.644;-79.438;2023-05-31T13:53:37;2.63;;;1.85;;
33579;SDS011;19909;43.644;-79.438;2023-05-31T13:56:04;3.97;;;1.80;;
33579;SDS011;19909;43.644;-79.438;2023-05-31T13:58:34;2.42;;;1.67;;
33579;SDS011;19909;43.644;-79.438;2023-05-31T14:01:02;2.15;;;1.95;;
33579;SDS011;19909;43.644;-79.438;2023-05-31T14:03:30;2.13;;;1.60;;
33579;SDS011;19909;43.644;-79.438;2023-05-31T14:05:56;2.08;;;1.90;;
33579;SDS011;19909;43.644;-79.438;2023-05-31T14:08:22;2.25;;;1.77;;
33579;SDS011;19909;43.644;-79.438;2023-05-31T14:10:48;1.90;;;1.60;;
33579;SDS011;19909;43.644;-79.438;2023-05-31T14:13:14;2.03;;;1.55;;
33579;SDS011;19909;43.644;-79.438;2023-05-31T14:15:40;2.20;;;2.00;;
33579;SDS011;19909;43.644;-79.438;2023-05-31T14:18:07;1.95;;;1.75;;
33579;SDS011;19909;43.644;-79.438;2023-05-31T14:20:33;2.75;;;1.80;;
33579;SDS011;19909;43.644;-79.438;2023-05-31T14:23:01;1.92;;;1.70;;
33579;SDS011;19909;43.644;-79.438;2023-05-31T14:25:29;1.70;;;1.60;;
33579;SDS011;19909;43.644;-79.438;2023-05-31T14:27:55;2.55;;;1.75;;
33579;SDS011;19909;43.644;-79.438;2023-05-31T14:30:22;1.80;;;1.60;;
33579;SDS011;19909;43.644;-79.438;2023-05-31T14:32:49;2.88;;;1.83;;
33579;SDS011;19909;43.644;-79.438;2023-05-31T14:35:16;2.00;;;1.77;;
33579;SDS011;19909;43.644;-79.438;2023-05-31T14:37:42;1.70;;;1.45;;
33579;SDS011;19909;43.644;-79.438;2023-05-31T14:40:08;2.83;;;1.67;;
33579;SDS011;19909;43.644;-79.438;2023-05-31T14:42:35;1.50;;;1.38;;
33579;SDS011;19909;43.644;-79.438;2023-05-31T14:45:01;1.85;;;1.60;;
33579;SDS011;19909;43.644;-79.438;2023-05-31T14:47:29;1.85;;;1.75;;
33579;SDS011;19909;43.644;-79.438;2023-05-31T14:49:56;1.88;;;1.58;;
33579;SDS011;19909;43.644;-79.438;2023-05-31T14:52:23;1.50;;;1.35;;
33579;SDS011;19909;43.644;-79.438;2023-05-31T14:54:49;1.83;;;1.60;;
33579;SDS011;19909;43.644;-79.438;2023-05-31T14:57:15;3.20;;;1.65;;
33579;SDS011;19909;43.644;-79.438;2023-05-31T14:59:42;2.55;;;1.67;;
33579;SDS011;19909;43.644;-79.438;2023-05-31T15:02:08;2.85;;;1.60;;
33579;SDS011;19909;43.644;-79.438;2023-05-31T15:04:34;2.08;;;1.90;;
33579;SDS011;19909;43.644;-79.438;2023-05-31T15:07:00;2.13;;;1.80;;
33579;SDS011;19909;43.644;-79.438;2023-05-31T15:09:27;2.85;;;1.60;;
33579;SDS011;19909;43.644;-79.438;2023-05-31T15:11:53;2.20;;;2.00;;
33579;SDS011;19909;43.644;-79.438;2023-05-31T15:14:19;3.40;;;1.98;;
33579;SDS011;19909;43.644;-79.438;2023-05-31T15:16:45;2.45;;;1.60;;
33579;SDS011;19909;43.644;-79.438;2023-05-31T15:19:11;1.92;;;1.73;;
33579;SDS011;19909;43.644;-79.438;2023-05-31T15:21:38;3.00;;;1.60;;